Time;durP1;ratioP1;P1;durP2;ratioP2;P2;SDS_P1;SDS_P2;PMS_P1;PMS_P2;Temp;Humidity;BMP_temperature;BMP_pressure;BME280_temperature;BME280_humidity;BME280_pressure;Samples;Min_cycle;Max_cycle;Signal;HPM_P1;HPM_P2
2020/12/23 00:01:31;;;;;;;60.13;25.65;;;;;;;12.41;72.42;101457.88;5018643;28;20038;-82
2020/12/23 00:03:58;;;;;;;58.28;26.13;;;;;;;12.44;72.29;101468.44;5024598;28;20041;-82
2020/12/23 00:06:35;;;;;;;47.13;24.38;;;;;;;12.51;72.22;101465.66;5020658;28;20084;-82
2020/12/23 00:09:05;;;;;;;46.70;23.95;;;;;;;12.51;71.74;101453.25;5022977;28;20041;-82
2020/12/23 00:11:32;;;;;;;54.60;27.00;;;;;;;12.51;72.24;101442.63;5020128;28;20069;-83
2020/12/23 00:14:00;;;;;;;45.08;23.30;;;;;;;12.50;72.29;101435.56;5014906;28;20030;-82
2020/12/23 00:16:27;;;;;;;45.85;23.27;;;;;;;12.52;71.97;101432.88;5023990;28;20088;-82
2020/12/23 00:18:53;;;;;;;49.17;24.50;;;;;;;12.53;71.96;101435.47;5030391;28;20029;-82
2020/12/23 00:21:20;;;;;;;52.63;24.70;;;;;;;12.53;72.26;101434.63;5026314;28;20045;-83
2020/12/23 00:23:47;;;;;;;57.00;26.60;;;;;;;12.56;72.15;101439.88;5029023;28;20037;-86
2020/12/23 00:26:14;;;;;;;58.25;24.92;;;;;;;12.58;72.41;101438.06;5024373;28;20056;-82
2020/12/23 00:28:42;;;;;;;48.28;24.05;;;;;;;12.57;72.36;101431.88;5022945;28;20049;-83
2020/12/23 00:31:14;;;;;;;47.38;24.42;;;;;;;12.56;72.15;101416.84;5025008;28;20029;-82
2020/12/23 00:33:41;;;;;;;60.17;27.50;;;;;;;12.59;72.44;101422.06;5026968;28;20124;-82
2020/12/23 00:36:14;;;;;;;47.78;23.65;;;;;;;12.65;72.34;101422.88;5024888;28;20829;-83
2020/12/23 00:38:41;;;;;;;48.55;23.73;;;;;;;12.60;71.97;101415.88;5024815;28;20032;-83
2020/12/23 00:41:12;;;;;;;53.95;25.98;;;;;;;12.65;72.18;101418.44;5025191;28;20017;-80
2020/12/23 00:43:38;;;;;;;50.90;24.90;;;;;;;12.65;72.34;101406.91;5024582;28;20488;-82
2020/12/23 00:46:16;;;;;;;52.92;24.42;;;;;;;12.71;72.64;101404.13;5024008;28;20438;-82
2020/12/23 00:48:45;;;;;;;56.28;27.83;;;;;;;12.69;71.72;101398.00;5027564;28;20037;-82
2020/12/23 00:51:13;;;;;;;53.60;24.60;;;;;;;12.68;72.43;101396.22;5027498;28;20065;-82
2020/12/23 00:53:41;;;;;;;63.42;27.38;;;;;;;12.69;72.37;101403.31;5025704;28;20026;-83
2020/12/23 00:56:08;;;;;;;62.78;28.17;;;;;;;12.66;72.32;101406.00;5026137;28;20083;-82
2020/12/23 00:58:34;;;;;;;77.30;29.20;;;;;;;12.68;72.42;101405.06;5027759;28;20168;-84
2020/12/23 01:01:02;;;;;;;68.93;29.48;;;;;;;12.66;72.45;101398.94;5025916;28;20400;-83
2020/12/23 01:03:28;;;;;;;76.45;31.38;;;;;;;12.73;72.44;101400.53;5026805;28;20461;-83
2020/12/23 01:05:56;;;;;;;66.03;29.15;;;;;;;12.73;72.62;101399.66;5028589;28;20053;-84
2020/12/23 01:08:22;;;;;;;79.35;32.92;;;;;;;12.73;72.35;101405.84;5025913;28;20037;-82
2020/12/23 01:10:49;;;;;;;65.35;30.38;;;;;;;12.71;72.43;101418.31;5023816;28;20088;-83
2020/12/23 01:13:16;;;;;;;77.47;30.05;;;;;;;12.72;72.56;101408.53;5028559;28;20033;-83
2020/12/23 01:15:42;;;;;;;70.88;28.55;;;;;;;12.72;72.46;101403.22;5029111;28;20093;-82
2020/12/23 01:18:09;;;;;;;74.35;31.98;;;;;;;12.77;72.31;101396.03;5022623;28;20442;-82
2020/12/23 01:20:35;;;;;;;63.53;28.98;;;;;;;12.77;72.53;101393.38;5027579;28;20488;-83
2020/12/23 01:23:02;;;;;;;61.20;28.08;;;;;;;12.82;72.66;101387.97;5024611;28;20053;-82
2020/12/23 01:25:29;;;;;;;67.78;30.02;;;;;;;12.83;72.81;101392.38;5026477;28;20064;-83
2020/12/23 01:27:57;;;;;;;56.05;27.38;;;;;;;12.89;72.62;101389.59;5028058;28;20039;-84
2020/12/23 01:30:24;;;;;;;64.78;28.70;;;;;;;12.90;72.75;101381.59;5020985;28;20060;-83
2020/12/23 01:32:51;;;;;;;82.18;31.58;;;;;;;12.93;72.54;101378.88;5021848;28;20022;-85
2020/12/23 01:35:18;;;;;;;70.28;29.88;;;;;;;12.93;72.65;101376.22;5029590;28;20029;-82
2020/12/23 01:37:44;;;;;;;67.47;29.58;;;;;;;12.94;72.60;101367.31;5024178;28;20026;-84
2020/12/23 01:40:11;;;;;;;84.45;31.63;;;;;;;12.95;72.67;101358.41;5023202;28;20029;-84
2020/12/23 01:42:37;;;;;;;83.15;31.23;;;;;;;12.98;72.01;101367.25;5026561;28;20025;-83
2020/12/23 01:45:05;;;;;;;84.53;33.45;;;;;;;13.00;72.39;101370.75;5026993;28;20078;-82
2020/12/23 01:47:37;;;;;;;81.93;32.03;;;;;;;13.02;72.38;101369.81;5022816;28;20029;-87
2020/12/23 01:50:04;;;;;;;94.70;33.10;;;;;;;13.02;72.37;101352.97;5024644;28;20042;-82
2020/12/23 01:52:31;;;;;;;85.45;35.13;;;;;;;12.98;72.60;101356.63;5023672;28;20164;-83
2020/12/23 01:54:59;;;;;;;97.47;35.58;;;;;;;13.02;72.12;101358.28;5021237;28;20473;-82
2020/12/23 01:57:25;;;;;;;88.72;33.35;;;;;;;13.02;72.35;101358.28;5025019;28;20409;-82
2020/12/23 01:59:52;;;;;;;88.18;32.63;;;;;;;13.03;72.62;101354.72;5025751;28;20111;-82
2020/12/23 02:02:41;;;;;;;163.82;42.40;;;;;;;13.15;72.00;101348.28;5024554;28;20193;-81
2020/12/23 02:05:09;;;;;;;80.88;32.47;;;;;;;13.05;72.74;101347.59;5025587;28;20072;-82
2020/12/23 02:07:35;;;;;;;102.60;34.42;;;;;;;13.06;72.70;101339.56;5023369;28;20132;-81
2020/12/23 02:10:06;;;;;;;96.78;35.75;;;;;;;13.09;72.63;101342.16;5023709;28;20037;-83
2020/12/23 02:12:33;;;;;;;96.40;33.78;;;;;;;13.08;72.20;101342.19;5025855;28;20017;-81
2020/12/23 02:15:16;;;;;;;77.43;32.50;;;;;;;13.20;72.13;101333.94;5025098;28;20022;-83
2020/12/23 02:17:42;;;;;;;126.13;42.15;;;;;;;13.15;72.33;101341.16;5026584;28;20020;-81
2020/12/23 02:20:11;;;;;;;92.05;35.00;;;;;;;13.16;72.39;101339.34;5030190;28;20038;-82
2020/12/23 02:22:38;;;;;;;104.00;37.47;;;;;;;13.15;72.61;101317.19;5024219;28;20088;-90
2020/12/23 02:25:07;;;;;;;110.10;39.13;;;;;;;13.18;72.46;101308.28;5026076;28;20025;-81
2020/12/23 02:27:34;;;;;;;128.50;42.97;;;;;;;13.15;73.14;101300.38;5023508;28;20113;-83
2020/12/23 02:30:03;;;;;;;129.13;44.05;;;;;;;13.18;72.63;101302.94;5024680;28;20425;-82
2020/12/23 02:32:30;;;;;;;112.10;40.10;;;;;;;13.18;72.56;101311.78;5025414;28;20088;-83
2020/12/23 02:34:56;;;;;;;107.88;40.20;;;;;;;13.19;72.76;101320.66;5025480;28;20492;-82
2020/12/23 02:37:23;;;;;;;119.43;43.40;;;;;;;13.20;72.82;101320.63;5022232;28;20455;-83
2020/12/23 02:39:52;;;;;;;141.38;44.45;;;;;;;13.22;72.87;101323.25;5027030;28;20030;-82
2020/12/23 02:42:21;;;;;;;117.72;38.15;;;;;;;13.26;72.80;101324.94;5024512;28;20026;-84
2020/12/23 02:44:48;;;;;;;139.88;44.30;;;;;;;13.27;72.53;101316.91;5024938;28;20040;-83
2020/12/23 02:47:16;;;;;;;132.07;41.38;;;;;;;13.25;73.03;101318.72;5025228;28;20129;-84
2020/12/23 02:49:43;;;;;;;154.05;48.88;;;;;;;13.30;72.85;101304.47;5024344;28;20076;-83
2020/12/23 02:52:11;;;;;;;124.93;43.47;;;;;;;13.31;72.91;101300.88;5024782;28;20018;-82
2020/12/23 02:54:40;;;;;;;119.03;44.40;;;;;;;13.32;73.22;101295.53;5023673;28;20495;-85
2020/12/23 02:57:08;;;;;;;161.48;49.90;;;;;;;13.29;72.86;101286.75;5021695;28;20071;-83
2020/12/23 02:59:35;;;;;;;129.80;44.45;;;;;;;13.31;73.11;101276.91;5022400;28;20024;-82
2020/12/23 03:02:03;;;;;;;128.00;45.45;;;;;;;13.30;73.28;101273.38;5023724;28;20392;-83
2020/12/23 03:04:30;;;;;;;147.60;47.83;;;;;;;13.32;72.98;101270.69;5031820;28;20044;-83
2020/12/23 03:06:56;;;;;;;134.43;48.00;;;;;;;13.31;73.28;101271.59;5021232;28;20042;-83
2020/12/23 03:09:23;;;;;;;141.45;47.85;;;;;;;13.33;73.24;101278.63;5025606;28;20071;-82
2020/12/23 03:11:49;;;;;;;157.93;48.67;;;;;;;13.34;73.05;101279.50;5019042;28;20381;-84
2020/12/23 03:14:16;;;;;;;137.30;48.35;;;;;;;13.31;72.96;101261.84;5020376;28;20437;-83
2020/12/23 03:16:42;;;;;;;160.32;51.47;;;;;;;13.37;73.16;101260.78;5025753;28;20029;-83
2020/12/23 03:19:09;;;;;;;119.85;43.55;;;;;;;13.35;73.31;101259.97;5025134;28;20080;-84
2020/12/23 03:21:35;;;;;;;127.95;46.80;;;;;;;13.48;73.17;101256.09;5023341;28;20065;-82
2020/12/23 03:24:02;;;;;;;145.25;49.45;;;;;;;13.40;73.28;101252.78;5027245;28;20028;-82
2020/12/23 03:26:29;;;;;;;156.77;50.15;;;;;;;13.43;73.26;101253.59;5028771;28;20021;-82
2020/12/23 03:28:55;;;;;;;124.72;46.85;;;;;;;13.44;73.43;101249.13;5026528;28;20036;-81
2020/12/23 03:31:22;;;;;;;150.90;51.30;;;;;;;13.46;73.41;101241.09;5025275;28;20487;-82
2020/12/23 03:33:50;;;;;;;140.88;49.05;;;;;;;13.48;73.38;101239.28;5024933;28;20041;-91
2020/12/23 03:36:22;;;;;;;130.30;46.65;;;;;;;13.47;73.49;101249.06;5025977;28;20487;-89
2020/12/23 03:38:49;;;;;;;147.40;47.70;;;;;;;13.49;73.43;101246.34;5022258;28;20041;-82
2020/12/23 03:41:16;;;;;;;123.60;46.65;;;;;;;13.50;72.92;101243.63;5026139;28;20045;-81
2020/12/23 03:43:42;;;;;;;172.65;52.38;;;;;;;13.51;73.16;101255.19;5023970;28;20030;-84
2020/12/23 03:46:09;;;;;;;123.30;44.72;;;;;;;13.53;73.26;101246.25;5028927;28;20041;-85
2020/12/23 03:48:35;;;;;;;163.90;51.67;;;;;;;13.53;73.14;101238.25;5023619;28;20096;-85
2020/12/23 03:51:02;;;;;;;151.23;52.55;;;;;;;13.54;73.06;101233.78;5029956;28;20022;-83
2020/12/23 03:53:28;;;;;;;143.43;51.45;;;;;;;13.51;73.17;101223.22;5027824;28;20026;-84
2020/12/23 03:55:55;;;;;;;114.40;47.15;;;;;;;13.55;73.16;101220.44;5030192;28;20112;-83
2020/12/23 03:58:21;;;;;;;129.40;46.47;;;;;;;13.57;72.77;101213.28;5036781;28;20063;-82
2020/12/23 04:00:49;;;;;;;176.10;55.40;;;;;;;13.62;72.78;101222.94;5032006;28;20041;-82
2020/12/23 04:03:15;;;;;;;105.65;46.30;;;;;;;13.62;73.01;101225.59;5021883;28;20100;-82
2020/12/23 04:05:41;;;;;;;151.77;52.60;;;;;;;13.63;72.58;101230.00;5024325;28;20030;-83
2020/12/23 04:08:08;;;;;;;119.82;46.60;;;;;;;13.65;72.98;101230.84;5024556;28;20037;-82
2020/12/23 04:10:34;;;;;;;114.78;44.13;;;;;;;13.65;73.01;101231.72;5025908;28;20156;-82
2020/12/23 04:13:00;;;;;;;196.63;57.15;;;;;;;13.63;73.13;101238.84;5026011;28;20051;-83
2020/12/23 04:15:27;;;;;;;135.55;49.72;;;;;;;13.66;72.79;101238.78;5023023;28;20080;-81
2020/12/23 04:17:55;;;;;;;142.00;50.10;;;;;;;13.63;72.89;101216.69;5026040;28;20531;-82
2020/12/23 04:20:21;;;;;;;155.50;52.33;;;;;;;13.68;72.65;101214.78;5024131;28;20022;-83
2020/12/23 04:22:47;;;;;;;118.00;47.05;;;;;;;13.67;72.98;101207.69;5026348;28;20048;-82
2020/12/23 04:25:14;;;;;;;143.48;49.35;;;;;;;13.67;73.15;101205.03;5023534;28;20103;-83
2020/12/23 04:27:40;;;;;;;145.05;52.30;;;;;;;13.67;72.72;101203.25;5023885;28;20045;-82
2020/12/23 04:30:07;;;;;;;149.70;47.40;;;;;;;13.70;73.19;101196.97;5024588;28;20083;-83
2020/12/23 04:32:35;;;;;;;143.70;52.72;;;;;;;13.66;73.28;101188.19;5025417;28;20052;-86
2020/12/23 04:35:03;;;;;;;143.05;51.53;;;;;;;13.69;72.96;101184.56;5025682;28;20388;-82
2020/12/23 04:37:35;;;;;;;173.88;56.08;;;;;;;13.73;73.06;101180.91;5022153;28;20115;-82
2020/12/23 04:40:04;;;;;;;113.10;44.90;;;;;;;13.71;72.68;101183.63;5023428;28;20119;-82
2020/12/23 04:42:32;;;;;;;173.98;54.72;;;;;;;13.67;73.31;101167.75;5024721;28;20045;-83
2020/12/23 04:44:59;;;;;;;126.93;46.88;;;;;;;13.65;73.19;101167.81;5043104;28;20257;-83
2020/12/23 04:47:29;;;;;;;149.13;51.90;;;;;;;13.66;73.43;101158.06;5022299;28;20113;-83
2020/12/23 04:49:56;;;;;;;114.15;46.42;;;;;;;13.66;73.34;101156.25;5025156;28;20029;-83
2020/12/23 04:52:31;;;;;;;125.20;47.70;;;;;;;13.73;72.99;101162.25;5023611;28;20022;-83
2020/12/23 04:54:59;;;;;;;102.95;43.92;;;;;;;13.73;73.20;101167.59;5025287;28;20033;-92
2020/12/23 04:57:28;;;;;;;131.40;46.05;;;;;;;13.71;73.21;101172.97;5022308;28;20036;-82
2020/12/23 04:59:55;;;;;;;126.07;45.17;;;;;;;13.72;72.89;101180.03;5025137;28;20083;-82
2020/12/23 05:02:22;;;;;;;168.40;51.83;;;;;;;13.70;73.35;101176.53;5022876;28;20029;-83
2020/12/23 05:04:48;;;;;;;130.07;47.88;;;;;;;13.74;73.42;101182.66;5025733;28;20029;-83
2020/12/23 05:07:20;;;;;;;145.32;50.72;;;;;;;13.79;73.38;101172.75;5022411;28;20066;-82
2020/12/23 05:09:50;;;;;;;128.25;46.58;;;;;;;13.81;73.33;101162.06;5023551;28;20064;-81
2020/12/23 05:12:19;;;;;;;134.73;48.33;;;;;;;13.79;73.37;101142.59;5022430;28;20385;-83
2020/12/23 05:14:46;;;;;;;158.13;48.03;;;;;;;13.77;73.34;101133.75;5024991;28;20029;-83
2020/12/23 05:17:15;;;;;;;104.65;39.65;;;;;;;13.77;73.63;101133.75;5022990;28;20144;-84
2020/12/23 05:19:41;;;;;;;111.53;43.22;;;;;;;13.76;73.49;101124.91;5022226;28;20077;-83
2020/12/23 05:22:08;;;;;;;138.70;45.22;;;;;;;13.77;73.58;101131.09;5021354;28;20046;-82
2020/12/23 05:24:38;;;;;;;115.93;42.63;;;;;;;13.80;73.56;101128.38;5031586;28;20086;-83
2020/12/23 05:27:05;;;;;;;129.20;42.65;;;;;;;13.78;73.21;101122.19;5018911;28;20152;-82
2020/12/23 05:29:33;;;;;;;117.40;45.38;;;;;;;13.76;73.35;101116.91;5027548;28;20034;-82
2020/12/23 05:32:03;;;;;;;120.85;43.15;;;;;;;13.79;73.33;101122.13;5026399;28;20034;-83
2020/12/23 05:34:34;;;;;;;122.00;43.20;;;;;;;13.79;73.66;101116.81;5019202;28;20105;-81
2020/12/23 05:37:03;;;;;;;144.73;48.88;;;;;;;13.72;73.49;101110.81;5033128;28;20484;-84
2020/12/23 05:39:32;;;;;;;140.27;43.90;;;;;;;13.80;73.26;101123.03;5027864;28;20026;-82
2020/12/23 05:42:00;;;;;;;97.68;39.17;;;;;;;13.77;73.24;101125.78;5026207;28;20029;-82
2020/12/23 05:44:28;;;;;;;109.07;41.42;;;;;;;13.73;73.82;101138.28;5026944;28;20169;-83
2020/12/23 05:46:55;;;;;;;101.35;40.20;;;;;;;13.72;73.53;101141.88;5024626;28;20029;-82
2020/12/23 05:49:25;;;;;;;82.07;36.65;;;;;;;13.81;73.55;101136.31;5023250;28;20028;-82
2020/12/23 05:51:53;;;;;;;108.88;39.20;;;;;;;13.80;73.37;101128.38;5023630;28;20471;-82
2020/12/23 05:54:21;;;;;;;106.25;40.80;;;;;;;13.79;73.39;101122.13;5024893;28;20064;-88
2020/12/23 05:56:51;;;;;;;108.53;41.63;;;;;;;13.82;73.62;101118.50;5023812;28;20025;-82
2020/12/23 05:59:18;;;;;;;102.90;38.88;;;;;;;13.78;73.57;101103.56;5027844;28;20037;-82
2020/12/23 06:01:45;;;;;;;93.32;36.28;;;;;;;13.80;73.46;101107.06;5026276;28;20029;-82
2020/12/23 06:04:15;;;;;;;82.05;35.55;;;;;;;13.84;73.77;101114.03;5025606;28;20033;-81
2020/12/23 06:06:44;;;;;;;107.05;37.78;;;;;;;13.81;73.73;101112.31;5022930;28;20075;-89
2020/12/23 06:09:11;;;;;;;80.40;32.75;;;;;;;13.78;73.93;101112.41;5027628;28;20029;-82
2020/12/23 06:11:44;;;;;;;78.05;33.95;;;;;;;13.79;73.91;101106.16;5025628;28;20022;-84
2020/12/23 06:14:13;;;;;;;84.05;32.80;;;;;;;13.78;73.90;101099.09;5019635;28;20026;-82
2020/12/23 06:19:27;;;;;;;62.90;29.65;;;;;;;13.87;74.04;101098.84;5081950;27;20407;-82
2020/12/23 06:21:56;;;;;;;60.05;26.65;;;;;;;13.87;73.83;101093.50;5070114;28;20491;-83
2020/12/23 06:24:25;;;;;;;82.50;32.35;;;;;;;13.83;74.36;101085.66;5065965;28;20468;-82
2020/12/23 06:26:56;;;;;;;68.07;30.30;;;;;;;13.91;73.85;101087.16;5068132;28;20025;-81
2020/12/23 06:29:25;;;;;;;66.80;30.27;;;;;;;13.87;73.86;101090.84;5063471;28;20029;-81
2020/12/23 06:31:54;;;;;;;70.10;29.67;;;;;;;13.82;73.94;101079.47;5062310;28;20100;-86
2020/12/23 06:34:24;;;;;;;77.68;29.23;;;;;;;13.90;73.93;101082.75;5063415;28;20029;-80
2020/12/23 06:36:54;;;;;;;60.97;27.48;;;;;;;13.95;73.75;101082.63;5064569;28;20056;-87
2020/12/23 06:39:22;;;;;;;70.95;28.35;;;;;;;13.97;73.64;101087.88;5060410;28;20033;-82
2020/12/23 06:41:52;;;;;;;54.38;26.73;;;;;;;13.94;73.96;101093.31;5063927;28;20108;-82
2020/12/23 06:44:19;;;;;;;57.53;27.48;;;;;;;13.87;74.33;101093.50;5063277;28;20071;-82
2020/12/23 06:57:49;;;;;;;45.50;22.23;;;;;;;13.99;74.62;101084.25;5078912;27;20425;-84
2020/12/23 07:03:04;;;;;;;45.80;21.98;;;;;;;14.05;74.35;101078.75;5069189;27;20390;-82
2020/12/23 07:05:36;;;;;;;41.13;20.13;;;;;;;14.06;74.71;101077.81;5042504;28;20087;-82
2020/12/23 07:10:48;;;;;;;38.05;18.27;;;;;;;14.11;74.25;101076.84;5079340;27;20891;-82
2020/12/23 07:13:18;;;;;;;44.17;19.55;;;;;;;14.01;74.67;101082.44;5067213;28;20111;-82
2020/12/23 07:18:37;;;;;;;44.40;18.67;;;;;;;13.96;74.57;101072.84;5089325;27;20424;-83
2020/12/23 07:21:06;;;;;;;40.78;17.40;;;;;;;14.03;74.93;101071.72;5096711;28;20023;-83
2020/12/23 07:23:34;;;;;;;30.58;16.15;;;;;;;14.01;74.58;101084.22;5090365;28;20029;-82
2020/12/23 07:26:04;;;;;;;35.13;16.33;;;;;;;14.03;74.68;101074.38;5096527;28;20484;-82
2020/12/23 07:28:37;;;;;;;35.08;16.60;;;;;;;13.99;74.82;101078.94;5085071;28;20032;-82
2020/12/23 07:31:04;;;;;;;29.08;15.77;;;;;;;14.01;74.97;101076.25;5093917;28;20454;-83
2020/12/23 07:33:33;;;;;;;32.03;15.25;;;;;;;13.92;75.06;101085.38;5103232;28;20043;-83
2020/12/23 07:36:00;;;;;;;33.47;15.20;;;;;;;14.01;75.09;101079.75;5101872;28;20111;-83
2020/12/23 07:38:30;;;;;;;27.75;14.40;;;;;;;13.90;75.29;101082.75;5092017;28;20050;-83
2020/12/23 07:40:56;;;;;;;26.17;13.55;;;;;;;13.99;74.88;101083.41;5075930;28;20057;-83
2020/12/23 07:43:23;;;;;;;31.70;13.45;;;;;;;14.06;75.13;101084.97;5072485;28;20025;-83
2020/12/23 07:45:50;;;;;;;29.77;12.82;;;;;;;14.02;74.90;101080.66;5072928;28;20028;-84
2020/12/23 07:48:19;;;;;;;28.15;12.88;;;;;;;14.10;74.71;101075.94;5074202;28;20028;-87
2020/12/23 07:50:53;;;;;;;203.38;132.25;;;;;;;14.12;74.61;101076.78;5079217;28;20051;-89
2020/12/23 07:53:21;;;;;;;95.43;50.25;;;;;;;14.15;74.47;101082.00;5079483;28;20124;-79
2020/12/23 07:55:49;;;;;;;31.85;17.58;;;;;;;14.17;74.49;101084.63;5081303;28;20028;-82
2020/12/23 07:58:17;;;;;;;32.85;14.52;;;;;;;14.11;74.86;101085.69;5077164;28;20060;-83
2020/12/23 08:00:44;;;;;;;31.00;14.30;;;;;;;14.03;75.07;101083.25;5084121;28;20028;-82
2020/12/23 08:03:12;;;;;;;33.88;14.63;;;;;;;14.15;74.48;101084.66;5079456;28;20025;-82
2020/12/23 08:05:39;;;;;;;35.80;14.40;;;;;;;14.13;74.36;101088.28;5072788;28;20169;-81
2020/12/23 08:08:06;;;;;;;27.30;13.57;;;;;;;14.20;74.26;101082.72;5082933;28;20020;-82
2020/12/23 08:10:33;;;;;;;27.92;14.52;;;;;;;14.15;74.27;101074.00;5084321;28;20039;-82
2020/12/23 08:13:01;;;;;;;28.85;14.70;;;;;;;14.18;74.62;101079.25;5082013;28;20463;-83
2020/12/23 08:15:29;;;;;;;25.00;14.30;;;;;;;14.02;75.19;101080.66;5078863;28;20102;-83
2020/12/23 08:20:43;;;;;;;25.55;15.07;;;;;;;14.16;74.86;101078.41;5110486;27;20485;-81
2020/12/23 08:23:11;;;;;;;27.67;16.77;;;;;;;14.07;75.16;101071.59;5109797;28;20032;-81
2020/12/23 08:25:37;;;;;;;25.92;15.70;;;;;;;14.16;74.90;101073.09;5090172;28;20513;-79
2020/12/23 08:28:03;;;;;;;27.13;16.63;;;;;;;14.17;74.82;101074.84;5097892;28;20073;-81
2020/12/23 08:30:32;;;;;;;21.33;14.93;;;;;;;14.23;74.36;101079.97;5094971;28;20036;-80
2020/12/23 08:33:06;;;;;;;23.58;15.40;;;;;;;14.21;74.54;101076.47;5101685;28;20474;-81
2020/12/23 08:35:36;;;;;;;24.63;16.00;;;;;;;14.19;74.81;101073.00;5103756;28;20035;-78
2020/12/23 08:38:04;;;;;;;27.67;16.88;;;;;;;14.28;74.59;101078.94;5100896;28;20498;-83
2020/12/23 08:40:31;;;;;;;21.88;15.20;;;;;;;14.11;75.06;101083.03;5102236;28;20079;-85
2020/12/23 08:42:59;;;;;;;18.20;13.27;;;;;;;14.18;74.76;101081.91;5102187;28;20075;-86
2020/12/23 08:45:29;;;;;;;19.88;12.75;;;;;;;14.19;74.56;101086.34;5109645;28;20134;-82
2020/12/23 08:47:57;;;;;;;15.20;10.95;;;;;;;14.16;74.64;101090.88;5105312;28;20027;-80
2020/12/23 08:50:26;;;;;;;13.85;10.30;;;;;;;14.05;75.03;101099.19;5106263;27;20364;-80
2020/12/23 08:52:54;;;;;;;13.90;10.05;;;;;;;14.14;74.50;101088.25;5107095;28;20093;-81
2020/12/23 08:55:24;;;;;;;12.05;9.35;;;;;;;14.12;74.35;101097.19;5104169;28;20032;-81
2020/12/23 08:57:51;;;;;;;11.35;9.35;;;;;;;14.03;75.01;101087.69;5123302;27;20144;-79
2020/12/23 09:00:19;;;;;;;11.77;9.27;;;;;;;14.12;74.52;101090.09;5113191;28;20151;-84
2020/12/23 09:02:49;;;;;;;15.38;9.90;;;;;;;14.13;74.50;101089.19;5115103;28;20039;-88
2020/12/23 09:05:21;;;;;;;17.15;10.50;;;;;;;14.13;74.62;101077.63;5108689;27;20059;-87
2020/12/23 09:07:47;;;;;;;18.85;11.18;;;;;;;14.03;74.61;101082.38;5113585;27;20032;-90
2020/12/23 09:10:13;;;;;;;15.00;10.40;;;;;;;14.10;74.33;101078.59;5113694;27;20367;-88
2020/12/23 09:12:39;;;;;;;14.57;9.55;;;;;;;14.12;74.40;101073.22;5111003;28;20028;-81
2020/12/23 09:15:13;;;;;;;17.13;11.93;;;;;;;14.22;74.22;101061.38;5107016;28;20108;-78
2020/12/23 09:17:39;;;;;;;17.58;10.93;;;;;;;14.08;74.50;101060.00;5106929;27;20110;-80
2020/12/23 09:20:06;;;;;;;22.75;12.80;;;;;;;14.19;74.02;101056.13;5105233;28;20031;-78
2020/12/23 09:22:36;;;;;;;17.92;11.07;;;;;;;14.21;73.97;101055.16;5103601;28;20028;-79
2020/12/23 09:25:19;;;;;;;19.17;12.38;;;;;;;14.28;74.13;101054.97;5105300;28;20110;-79
2020/12/23 09:27:52;;;;;;;21.45;11.25;;;;;;;14.19;74.18;101046.34;5093204;28;20032;-84
2020/12/23 09:30:39;;;;;;;20.92;12.45;;;;;;;14.27;73.90;101042.56;5099273;28;20103;-81
2020/12/23 09:33:08;;;;;;;64.63;41.78;;;;;;;14.23;74.30;101036.44;5097071;28;20501;-82
2020/12/23 09:35:35;;;;;;;37.00;19.02;;;;;;;14.20;74.08;101032.09;5105141;28;20095;-81
2020/12/23 09:40:57;;;;;;;22.25;13.55;;;;;;;14.30;73.79;101015.81;5075078;28;20821;-89
2020/12/23 09:43:26;;;;;;;18.70;10.65;;;;;;;14.24;73.99;101017.75;5070264;28;20116;-85
2020/12/23 09:45:54;;;;;;;16.67;11.35;;;;;;;14.23;74.20;101013.34;5058258;28;20476;-83
2020/12/23 09:48:22;;;;;;;16.77;11.10;;;;;;;14.21;74.35;101007.19;5064219;28;20033;-84
2020/12/23 09:50:49;;;;;;;15.52;10.57;;;;;;;14.16;74.32;101003.81;5058453;28;20066;-83
2020/12/23 09:53:15;;;;;;;18.35;10.75;;;;;;;14.14;74.41;101000.31;5061233;28;20425;-83
2020/12/23 09:55:46;;;;;;;16.60;10.32;;;;;;;14.11;74.54;100995.09;5060430;28;20120;-82
2020/12/23 09:58:13;;;;;;;13.43;8.90;;;;;;;14.08;74.52;100989.84;5060273;28;20041;-80
2020/12/23 10:00:40;;;;;;;11.98;8.60;;;;;;;14.03;74.42;100983.81;5060551;28;20039;-82
2020/12/23 10:03:08;;;;;;;14.10;8.15;;;;;;;14.06;74.42;100991.72;5056782;28;20059;-81
2020/12/23 10:05:35;;;;;;;13.50;8.60;;;;;;;14.03;74.78;100989.13;5058598;28;20030;-85
2020/12/23 10:08:02;;;;;;;11.30;7.93;;;;;;;14.14;74.24;100979.00;5062118;28;20368;-82
2020/12/23 10:10:28;;;;;;;11.43;7.57;;;;;;;14.13;74.16;100977.28;5059308;28;20489;-82
2020/12/23 10:12:54;;;;;;;15.18;8.27;;;;;;;14.17;74.07;100983.38;5065181;28;20043;-81
2020/12/23 10:15:21;;;;;;;15.55;8.10;;;;;;;14.18;73.88;100975.31;5055873;28;20072;-80
2020/12/23 10:17:47;;;;;;;13.07;8.07;;;;;;;14.18;74.23;100978.00;5058788;28;20430;-81
2020/12/23 10:20:14;;;;;;;10.32;7.40;;;;;;;14.19;74.13;100970.84;5056649;28;20021;-80
2020/12/23 10:22:40;;;;;;;10.43;7.25;;;;;;;14.17;74.30;100960.25;5057165;28;20033;-80
2020/12/23 10:25:07;;;;;;;11.25;8.10;;;;;;;14.21;74.13;100964.56;5055527;28;20059;-80
2020/12/23 10:27:34;;;;;;;8.60;6.47;;;;;;;14.19;74.10;100958.44;5055582;28;20033;-80
2020/12/23 10:30:02;;;;;;;15.18;7.07;;;;;;;14.25;73.92;100946.66;5058185;28;20025;-81
2020/12/23 10:32:31;;;;;;;10.98;6.90;;;;;;;14.30;74.11;100946.53;5053921;28;20029;-85
2020/12/23 10:34:57;;;;;;;13.95;8.65;;;;;;;14.27;73.91;100935.94;5054922;28;20051;-82
2020/12/23 10:37:25;;;;;;;14.20;9.90;;;;;;;14.25;74.27;100938.69;5058571;28;20494;-81
2020/12/23 10:39:52;;;;;;;23.73;10.93;;;;;;;14.20;74.15;100930.81;5056761;28;20047;-82
2020/12/23 10:42:19;;;;;;;22.02;13.23;;;;;;;14.16;74.25;100921.19;5055377;28;20049;-80
2020/12/23 10:44:45;;;;;;;20.30;13.40;;;;;;;14.11;74.58;100925.81;5054001;28;20098;-81
2020/12/23 10:47:12;;;;;;;19.77;13.07;;;;;;;14.17;74.19;100912.28;5058293;28;20037;-81
2020/12/23 10:49:38;;;;;;;18.92;12.60;;;;;;;14.16;74.26;100896.38;5052344;28;20033;-79
2020/12/23 10:52:04;;;;;;;19.50;13.07;;;;;;;14.17;74.41;100896.31;5046124;28;20044;-83
2020/12/23 10:54:31;;;;;;;20.73;12.93;;;;;;;14.15;74.43;100900.81;5045000;28;20029;-83
2020/12/23 10:56:58;;;;;;;22.67;12.90;;;;;;;14.16;74.35;100896.38;5045450;28;20033;-85
2020/12/23 10:59:24;;;;;;;53.58;31.77;;;;;;;14.20;74.19;100892.66;5044701;28;20029;-85
2020/12/23 11:01:58;;;;;;;32.80;18.15;;;;;;;14.24;74.30;100895.19;5044570;28;20057;-88
2020/12/23 11:04:24;;;;;;;23.75;14.18;;;;;;;14.21;74.09;100884.59;5044235;28;20048;-83
2020/12/23 11:06:51;;;;;;;23.10;13.10;;;;;;;14.23;74.51;100889.88;5039092;28;20067;-82
2020/12/23 11:09:19;;;;;;;20.08;12.65;;;;;;;14.27;74.08;100877.31;5038792;28;20029;-84
2020/12/23 11:11:53;;;;;;;18.10;11.55;;;;;;;14.34;73.85;100870.84;5037608;28;20064;-83
2020/12/23 11:14:20;;;;;;;15.25;11.10;;;;;;;14.31;74.15;100860.31;5039514;28;20018;-84
2020/12/23 11:16:50;;;;;;;17.75;10.48;;;;;;;14.33;74.20;100862.00;5039618;28;20029;-84
2020/12/23 11:19:18;;;;;;;17.23;10.10;;;;;;;14.29;74.39;100847.03;5047160;28;20327;-84
2020/12/23 11:21:47;;;;;;;14.52;9.27;;;;;;;14.34;74.05;100850.41;5040619;28;20036;-89
2020/12/23 11:24:15;;;;;;;12.35;8.75;;;;;;;14.32;74.02;100835.41;5041596;28;20037;-89
2020/12/23 11:26:42;;;;;;;11.93;6.50;;;;;;;14.28;74.16;100829.31;5042532;28;20037;-84
2020/12/23 11:29:08;;;;;;;10.75;5.55;;;;;;;14.31;74.05;100831.00;5039309;28;20032;-83
2020/12/23 11:31:34;;;;;;;10.80;4.68;;;;;;;14.34;73.95;100825.53;5040172;28;20047;-83
2020/12/23 11:34:01;;;;;;;5.82;4.15;;;;;;;14.32;74.22;100822.94;5035115;28;20036;-83
2020/12/23 11:36:28;;;;;;;7.03;3.88;;;;;;;14.39;73.88;100828.91;5042000;28;20064;-83
2020/12/23 11:38:54;;;;;;;7.72;4.50;;;;;;;14.37;74.00;100820.13;5043499;28;20025;-83